Time,TemperatureF,DewpointF,PressureIn,WindDirection,WindDirectionDegrees,WindSpeedMPH,WindSpeedGustMPH,Humidity,HourlyPrecipIn,Conditions,Clouds,dailyrainin,SoftwareType,DateUTC
2013-07-23 00:02:00,74.0,71.0,29.85,SE,135,0.0,0.0,90,0.00,,,1.59,,2013-07-23 05:02:00,
2013-07-23 00:11:00,74.0,71.0,29.85,SE,135,0.0,0.0,90,0.00,,,1.59,,2013-07-23 05:11:00,
2013-07-23 00:22:00,74.0,71.0,29.86,SE,135,0.0,0.0,91,0.00,,,1.49,,2013-07-23 05:22:00,
2013-07-23 00:33:00,74.0,71.0,29.86,SE,135,0.0,0.0,91,0.00,,,1.49,,2013-07-23 05:33:00,
2013-07-23 00:44:00,74.0,71.0,29.86,SE,135,0.0,0.0,91,0.00,,,1.49,,2013-07-23 05:44:00,
2013-07-23 00:52:00,73.0,70.0,29.86,SE,135,0.0,0.0,91,0.00,,,1.49,,2013-07-23 05:52:00,
2013-07-23 01:01:00,73.0,70.0,29.86,SE,135,0.0,0.0,91,0.00,,,1.49,,2013-07-23 06:01:00,
2013-07-23 01:11:00,73.0,70.0,29.86,SE,135,0.0,0.0,91,0.00,,,1.49,,2013-07-23 06:11:00,
2013-07-23 01:22:00,73.0,70.0,29.84,SE,135,0.0,2.0,91,0.00,,,1.15,,2013-07-23 06:22:00,
2013-07-23 01:33:00,73.0,70.0,29.84,SE,135,0.0,2.0,91,0.00,,,1.15,,2013-07-23 06:33:00,
2013-07-23 01:42:00,73.0,70.0,29.84,SE,135,0.0,2.0,91,0.00,,,1.15,,2013-07-23 06:42:00,
2013-07-23 01:52:00,73.0,70.0,29.84,SE,135,0.0,0.0,91,0.00,,,1.15,,2013-07-23 06:52:00,
2013-07-23 02:01:00,73.0,70.0,29.84,SE,135,0.0,0.0,91,0.00,,,1.15,,2013-07-23 07:01:00,
2013-07-23 02:12:00,73.0,70.0,29.84,SE,135,0.0,0.0,91,0.00,,,1.15,,2013-07-23 07:12:00,
2013-07-23 02:22:00,73.0,71.0,29.82,SE,135,0.0,2.0,92,0.00,,,0.12,,2013-07-23 07:22:00,
2013-07-23 02:33:00,73.0,71.0,29.82,SE,135,0.0,2.0,92,0.00,,,0.12,,2013-07-23 07:33:00,
2013-07-23 02:42:00,73.0,71.0,29.82,SE,135,0.0,2.0,92,0.00,,,0.12,,2013-07-23 07:42:00,
2013-07-23 02:52:00,73.0,70.0,29.83,SE,135,0.0,1.0,91,0.00,,,0.12,,2013-07-23 07:52:00,
2013-07-23 03:01:00,73.0,70.0,29.83,SE,135,0.0,1.0,91,0.00,,,0.12,,2013-07-23 08:01:00,
2013-07-23 03:11:00,73.0,70.0,29.83,SE,135,0.0,1.0,91,0.00,,,0.12,,2013-07-23 08:11:00,
2013-07-23 03:22:00,73.0,70.0,29.82,SW,217,0.0,8.0,90,0.00,,,0.02,,2013-07-23 08:22:00,
2013-07-23 03:33:00,73.0,70.0,29.82,SW,217,0.0,8.0,90,0.00,,,0.02,,2013-07-23 08:33:00,
2013-07-23 03:43:00,73.0,70.0,29.82,SW,217,0.0,8.0,90,0.00,,,0.02,,2013-07-23 08:43:00,
2013-07-23 03:52:00,74.0,71.0,29.82,West,269,0.0,2.0,89,0.00,,,0.02,,2013-07-23 08:52:00,
2013-07-23 04:01:00,74.0,71.0,29.82,West,269,0.0,2.0,89,0.00,,,0.02,,2013-07-23 09:01:00,
2013-07-23 04:11:00,74.0,71.0,29.82,West,269,0.0,2.0,89,0.00,,,0.02,,2013-07-23 09:11:00,
2013-07-23 04:22:00,74.0,71.0,29.81,SW,216,0.0,1.0,90,0.00,,,0.00,,2013-07-23 09:22:00,
2013-07-23 04:33:00,74.0,71.0,29.81,SW,216,0.0,1.0,90,0.00,,,0.00,,2013-07-23 09:33:00,
2013-07-23 04:43:00,74.0,71.0,29.81,SW,216,0.0,1.0,90,0.00,,,0.00,,2013-07-23 09:43:00,
2013-07-23 04:53:00,74.0,71.0,29.80,SW,217,0.0,0.0,90,0.00,,,0.00,,2013-07-23 09:53:00,
2013-07-23 05:02:00,74.0,71.0,29.80,SW,217,0.0,0.0,90,0.00,,,0.00,,2013-07-23 10:02:00,
2013-07-23 05:11:00,74.0,71.0,29.80,SW,217,0.0,0.0,90,0.00,,,0.00,,2013-07-23 10:11:00,
2013-07-23 05:22:00,73.0,70.0,29.78,SSW,209,0.0,3.0,91,0.00,,,0.00,,2013-07-23 10:22:00,
2013-07-23 05:32:00,73.0,70.0,29.78,SSW,209,0.0,3.0,91,0.00,,,0.00,,2013-07-23 10:32:00,
2013-07-23 05:44:00,73.0,70.0,29.78,SSW,209,0.0,3.0,91,0.00,,,0.00,,2013-07-23 10:44:00,
2013-07-23 05:52:00,73.0,71.0,29.78,SE,145,0.0,3.0,92,0.00,,,0.00,,2013-07-23 10:52:00,
2013-07-23 06:02:00,73.0,71.0,29.78,SE,145,0.0,3.0,92,0.00,,,0.00,,2013-07-23 11:02:00,
2013-07-23 06:12:00,73.0,71.0,29.78,SE,145,0.0,3.0,92,0.00,,,0.00,,2013-07-23 11:12:00,
2013-07-23 06:22:00,72.0,70.0,29.79,SSE,156,0.0,1.0,92,0.00,,,0.00,,2013-07-23 11:22:00,
2013-07-23 06:32:00,72.0,70.0,29.79,SSE,156,0.0,1.0,92,0.00,,,0.00,,2013-07-23 11:32:00,
2013-07-23 06:43:00,72.0,70.0,29.79,SSE,156,0.0,1.0,92,0.00,,,0.00,,2013-07-23 11:43:00,
2013-07-23 06:52:00,72.0,70.0,29.80,SSE,156,0.0,0.0,93,0.00,,,0.00,,2013-07-23 11:52:00,
2013-07-23 07:02:00,72.0,70.0,29.80,SSE,156,0.0,0.0,93,0.00,,,0.00,,2013-07-23 12:02:00,
2013-07-23 07:11:00,72.0,70.0,29.80,SSE,156,0.0,0.0,93,0.00,,,0.00,,2013-07-23 12:11:00,
2013-07-23 07:22:00,72.0,70.0,29.80,SSE,156,0.0,0.0,93,0.00,,,0.00,,2013-07-23 12:22:00,
2013-07-23 07:33:00,72.0,70.0,29.80,SSE,156,0.0,0.0,93,0.00,,,0.00,,2013-07-23 12:33:00,
2013-07-23 08:01:00,75.0,72.0,29.80,SSE,156,1.0,3.0,91,0.00,,,0.00,,2013-07-23 13:01:00,
2013-07-23 08:11:00,75.0,72.0,29.80,SSE,156,1.0,3.0,91,0.00,,,0.00,,2013-07-23 13:11:00,
2013-07-23 08:22:00,77.0,73.0,29.81,SSE,156,0.0,2.0,88,0.00,,,0.00,,2013-07-23 13:22:00,
2013-07-23 08:32:00,77.0,73.0,29.81,SSE,156,0.0,2.0,88,0.00,,,0.00,,2013-07-23 13:32:00,
2013-07-23 08:43:00,77.0,73.0,29.81,SSE,156,0.0,2.0,88,0.00,,,0.00,,2013-07-23 13:43:00,
2013-07-23 08:52:00,79.0,74.0,29.83,West,268,1.0,4.0,84,0.00,,,0.00,,2013-07-23 13:52:00,
2013-07-23 09:02:00,79.0,74.0,29.83,West,268,1.0,4.0,84,0.00,,,0.00,,2013-07-23 14:02:00,
2013-07-23 09:12:00,79.0,74.0,29.83,West,268,1.0,4.0,84,0.00,,,0.00,,2013-07-23 14:12:00,
2013-07-23 09:22:00,80.0,74.0,29.82,WSW,255,0.0,3.0,82,0.00,,,0.00,,2013-07-23 14:22:00,
2013-07-23 09:32:00,80.0,74.0,29.82,WSW,255,0.0,3.0,82,0.00,,,0.00,,2013-07-23 14:32:00,
2013-07-23 09:44:00,80.0,74.0,29.82,WSW,255,0.0,3.0,82,0.00,,,0.00,,2013-07-23 14:44:00,
2013-07-23 09:53:00,82.0,74.0,29.82,WNW,301,2.0,5.0,78,0.00,,,0.00,,2013-07-23 14:53:00,
2013-07-23 10:03:00,82.0,74.0,29.82,WNW,301,2.0,5.0,78,0.00,,,0.00,,2013-07-23 15:03:00,
2013-07-23 10:11:00,82.0,74.0,29.82,WNW,301,2.0,5.0,78,0.00,,,0.00,,2013-07-23 15:11:00,
2013-07-23 10:24:00,83.0,73.0,29.83,WNW,297,1.0,8.0,73,0.00,,,0.00,,2013-07-23 15:24:00,
2013-07-23 10:32:00,83.0,73.0,29.83,WNW,297,1.0,8.0,73,0.00,,,0.00,,2013-07-23 15:32:00,
2013-07-23 10:43:00,83.0,73.0,29.83,WNW,297,1.0,8.0,73,0.00,,,0.00,,2013-07-23 15:43:00,
2013-07-23 10:52:00,83.0,73.0,29.84,WSW,241,1.0,8.0,71,0.00,,,0.00,,2013-07-23 15:52:00,
2013-07-23 11:01:00,83.0,73.0,29.84,WSW,241,1.0,8.0,71,0.00,,,0.00,,2013-07-23 16:01:00,
2013-07-23 11:12:00,83.0,73.0,29.84,WSW,241,1.0,8.0,71,0.00,,,0.00,,2013-07-23 16:12:00,
2013-07-23 11:22:00,85.0,71.0,29.84,NNW,335,4.0,7.0,63,0.00,,,0.00,,2013-07-23 16:22:00,
2013-07-23 11:33:00,85.0,71.0,29.84,NNW,335,4.0,7.0,63,0.00,,,0.00,,2013-07-23 16:33:00,
2013-07-23 11:43:00,85.0,71.0,29.84,NNW,335,4.0,7.0,63,0.00,,,0.00,,2013-07-23 16:43:00,
2013-07-23 11:52:00,85.0,70.0,29.85,WNW,291,4.0,8.0,60,0.00,,,0.00,,2013-07-23 16:52:00,
2013-07-23 12:02:00,85.0,70.0,29.85,WNW,291,4.0,8.0,60,0.00,,,0.00,,2013-07-23 17:02:00,
2013-07-23 12:11:00,85.0,70.0,29.85,WNW,291,4.0,8.0,60,0.00,,,0.00,,2013-07-23 17:11:00,
2013-07-23 12:22:00,86.0,70.0,29.85,NW,324,2.0,8.0,60,0.00,,,0.00,,2013-07-23 17:22:00,
2013-07-23 12:32:00,86.0,70.0,29.85,NW,324,2.0,8.0,60,0.00,,,0.00,,2013-07-23 17:32:00,
2013-07-23 12:42:00,86.0,70.0,29.85,NW,324,2.0,8.0,60,0.00,,,0.00,,2013-07-23 17:42:00,
2013-07-23 12:56:00,84.0,65.0,29.83,WNW,293,4.0,12.0,53,0.00,,,0.00,,2013-07-23 17:56:00,
2013-07-23 13:03:00,84.0,65.0,29.83,WNW,293,4.0,12.0,53,0.00,,,0.00,,2013-07-23 18:03:00,
2013-07-23 13:12:00,84.0,65.0,29.83,WNW,293,4.0,12.0,53,0.00,,,0.00,,2013-07-23 18:12:00,
2013-07-23 13:24:00,85.0,68.0,29.83,WNW,291,3.0,10.0,56,0.00,,,0.00,,2013-07-23 18:24:00,
2013-07-23 13:34:00,85.0,68.0,29.83,WNW,291,3.0,10.0,56,0.00,,,0.00,,2013-07-23 18:34:00,
2013-07-23 13:49:00,85.0,68.0,29.83,WNW,291,3.0,10.0,56,0.00,,,0.00,,2013-07-23 18:49:00,
2013-07-23 13:57:00,85.0,68.0,29.82,West,279,5.0,10.0,56,0.00,,,0.00,,2013-07-23 18:57:00,
2013-07-23 14:03:00,85.0,68.0,29.82,West,279,5.0,10.0,56,0.00,,,0.00,,2013-07-23 19:03:00,
2013-07-23 14:15:00,85.0,68.0,29.82,West,279,5.0,10.0,56,0.00,,,0.00,,2013-07-23 19:15:00,
2013-07-23 14:26:00,85.0,70.0,29.83,WNW,295,4.0,11.0,61,0.00,,,0.00,,2013-07-23 19:26:00,
2013-07-23 14:33:00,85.0,70.0,29.83,WNW,295,4.0,11.0,61,0.00,,,0.00,,2013-07-23 19:33:00,
2013-07-23 14:49:00,85.0,70.0,29.83,WNW,295,4.0,11.0,61,0.00,,,0.00,,2013-07-23 19:49:00,
2013-07-23 14:55:00,85.0,68.0,29.81,NW,308,6.0,13.0,57,0.00,,,0.00,,2013-07-23 19:55:00,
2013-07-23 15:05:00,85.0,68.0,29.81,NW,308,6.0,13.0,57,0.00,,,0.00,,2013-07-23 20:05:00,
2013-07-23 15:13:00,85.0,68.0,29.81,NW,308,6.0,13.0,57,0.00,,,0.00,,2013-07-23 20:13:00,
2013-07-23 15:23:00,85.0,70.0,29.81,WNW,297,6.0,12.0,60,0.00,,,0.00,,2013-07-23 20:23:00,
2013-07-23 15:34:00,85.0,70.0,29.81,WNW,297,6.0,12.0,60,0.00,,,0.00,,2013-07-23 20:34:00,
2013-07-23 15:47:00,85.0,70.0,29.81,WNW,297,6.0,12.0,60,0.00,,,0.00,,2013-07-23 20:47:00,
2013-07-23 15:59:00,85.0,69.0,29.81,SW,228,6.0,13.0,59,0.00,,,0.00,,2013-07-23 20:59:00,
2013-07-23 16:23:00,86.0,72.0,29.80,NNW,337,3.0,10.0,64,0.00,,,0.00,,2013-07-23 21:23:00,
2013-07-23 16:36:00,86.0,72.0,29.80,NNW,337,3.0,10.0,64,0.00,,,0.00,,2013-07-23 21:36:00,
2013-07-23 16:48:00,86.0,72.0,29.80,NNW,337,3.0,10.0,64,0.00,,,0.00,,2013-07-23 21:48:00,
2013-07-23 16:57:00,85.0,71.0,29.81,NW,312,5.0,11.0,64,0.00,,,0.00,,2013-07-23 21:57:00,
2013-07-23 17:05:00,85.0,71.0,29.81,NW,312,5.0,11.0,64,0.00,,,0.00,,2013-07-23 22:05:00,
2013-07-23 17:12:00,85.0,71.0,29.81,NW,312,5.0,11.0,64,0.00,,,0.00,,2013-07-23 22:12:00,
2013-07-23 17:24:00,83.0,71.0,29.81,NNW,341,5.0,9.0,68,0.00,,,0.00,,2013-07-23 22:24:00,
2013-07-23 17:34:00,83.0,71.0,29.81,NNW,341,5.0,9.0,68,0.00,,,0.00,,2013-07-23 22:34:00,
2013-07-23 17:47:00,83.0,71.0,29.81,NNW,341,5.0,9.0,68,0.00,,,0.00,,2013-07-23 22:47:00,
2013-07-23 18:00:00,82.0,69.0,29.82,WNW,301,5.0,13.0,64,0.00,,,0.00,,2013-07-23 23:00:00,
2013-07-23 18:05:00,82.0,69.0,29.82,WNW,301,5.0,13.0,64,0.00,,,0.00,,2013-07-23 23:05:00,
2013-07-23 18:13:00,82.0,69.0,29.82,WNW,301,5.0,13.0,64,0.00,,,0.00,,2013-07-23 23:13:00,
2013-07-23 18:24:00,81.0,69.0,29.81,NW,308,3.0,7.0,66,0.00,,,0.00,,2013-07-23 23:24:00,
2013-07-23 18:35:00,81.0,69.0,29.81,NW,308,3.0,7.0,66,0.00,,,0.00,,2013-07-23 23:35:00,
2013-07-23 18:46:00,81.0,69.0,29.81,NW,308,3.0,7.0,66,0.00,,,0.00,,2013-07-23 23:46:00,
2013-07-23 18:59:00,81.0,70.0,29.80,NNW,343,3.0,6.0,69,0.00,,,0.00,,2013-07-23 23:59:00,
2013-07-23 19:14:00,81.0,70.0,29.80,NNW,343,3.0,6.0,69,0.00,,,0.00,,2013-07-24 00:14:00,
2013-07-23 19:26:00,80.0,67.0,29.81,North,355,3.0,8.0,65,0.00,,,0.00,,2013-07-24 00:26:00,
2013-07-23 19:34:00,80.0,67.0,29.81,North,355,3.0,8.0,65,0.00,,,0.00,,2013-07-24 00:34:00,
2013-07-23 19:50:00,80.0,67.0,29.81,North,355,3.0,8.0,65,0.00,,,0.00,,2013-07-24 00:50:00,
2013-07-23 19:58:00,78.0,66.0,29.84,NNW,342,3.0,7.0,67,0.00,,,0.00,,2013-07-24 00:58:00,
2013-07-23 20:04:00,78.0,66.0,29.84,NNW,342,3.0,7.0,67,0.00,,,0.00,,2013-07-24 01:04:00,
2013-07-23 20:14:00,78.0,66.0,29.84,NNW,342,3.0,7.0,67,0.00,,,0.00,,2013-07-24 01:14:00,
2013-07-23 20:24:00,76.0,66.0,29.86,NE,45,5.0,10.0,72,0.00,,,0.00,,2013-07-24 01:24:00,
2013-07-23 20:33:00,76.0,66.0,29.86,NE,45,5.0,10.0,72,0.00,,,0.00,,2013-07-24 01:33:00,
2013-07-23 20:47:00,76.0,66.0,29.86,NE,45,5.0,10.0,72,0.00,,,0.00,,2013-07-24 01:47:00,
2013-07-23 21:04:00,74.0,65.0,29.86,NNW,345,3.0,9.0,74,0.00,,,0.00,,2013-07-24 02:04:00,
2013-07-23 21:16:00,74.0,65.0,29.86,NNW,345,3.0,9.0,74,0.00,,,0.00,,2013-07-24 02:16:00,
2013-07-23 21:26:00,72.0,65.0,29.88,NNW,341,3.0,5.0,78,0.00,,,0.00,,2013-07-24 02:26:00,
2013-07-23 21:48:00,72.0,65.0,29.88,NNW,341,3.0,5.0,78,0.00,,,0.00,,2013-07-24 02:48:00,
2013-07-23 21:56:00,71.0,63.0,29.90,NW,323,2.0,6.0,76,0.00,,,0.00,,2013-07-24 02:56:00,
2013-07-23 22:04:00,71.0,63.0,29.90,NW,323,2.0,6.0,76,0.00,,,0.00,,2013-07-24 03:04:00,
2013-07-23 22:13:00,71.0,63.0,29.90,NW,323,2.0,6.0,76,0.00,,,0.00,,2013-07-24 03:13:00,
2013-07-23 22:24:00,70.0,62.0,29.91,North,350,1.0,4.0,77,0.00,,,0.00,,2013-07-24 03:24:00,
2013-07-23 22:46:00,70.0,62.0,29.91,North,350,1.0,4.0,77,0.00,,,0.00,,2013-07-24 03:46:00,
2013-07-23 22:57:00,70.0,63.0,29.91,North,355,2.0,5.0,78,0.00,,,0.00,,2013-07-24 03:57:00,
2013-07-23 23:01:00,70.0,63.0,29.91,North,355,2.0,5.0,78,0.00,,,0.00,,2013-07-24 04:01:00,
2013-07-23 23:11:00,70.0,63.0,29.91,North,355,2.0,5.0,78,0.00,,,0.00,,2013-07-24 04:11:00,
2013-07-23 23:22:00,69.0,62.0,29.91,NNW,339,2.0,6.0,79,0.00,,,0.00,,2013-07-24 04:22:00,
2013-07-23 23:32:00,69.0,62.0,29.91,NNW,339,2.0,6.0,79,0.00,,,0.00,,2013-07-24 04:32:00,
2013-07-23 23:43:00,69.0,62.0,29.91,NNW,339,2.0,6.0,79,0.00,,,0.00,,2013-07-24 04:43:00,
2013-07-23 23:53:00,69.0,62.0,29.91,NNW,339,2.0,6.0,79,0.00,,,0.00,,2013-07-24 04:53:00,